createdAt,value
2022-10-31T00:01:36.730Z,9.50
2022-10-31T00:04:03.954Z,11.60
2022-10-31T00:06:30.778Z,10.70
2022-10-31T00:09:00.486Z,12.10
2022-10-31T00:11:27.327Z,11.50
2022-10-31T00:13:54.144Z,11.50
2022-10-31T00:16:23.905Z,11.50
2022-10-31T00:18:51.157Z,11.90
2022-10-31T00:21:18.077Z,10.10
2022-10-31T00:23:45.940Z,11.50
2022-10-31T00:26:12.784Z,10.20
2022-10-31T00:28:39.603Z,11.50
2022-10-31T00:31:07.191Z,11.50
2022-10-31T00:33:34.391Z,13.40
2022-10-31T00:36:01.198Z,11.50
2022-10-31T00:38:28.034Z,11.50
2022-10-31T00:40:54.820Z,11.50
2022-10-31T00:43:21.624Z,11.40
2022-10-31T00:45:48.465Z,11.50
2022-10-31T00:48:15.250Z,11.40
2022-10-31T00:50:42.097Z,10.00
2022-10-31T00:53:09.370Z,12.30
2022-10-31T00:55:36.488Z,13.10
2022-10-31T00:58:03.778Z,11.40
2022-10-31T01:00:30.977Z,11.20
2022-10-31T01:02:58.133Z,11.40
2022-10-31T01:05:25.242Z,13.90
2022-10-31T01:07:52.018Z,9.60
2022-10-31T01:10:19.233Z,13.80
2022-10-31T01:12:46.647Z,11.10
2022-10-31T01:15:15.119Z,11.90
2022-10-31T01:17:42.896Z,10.40
2022-10-31T01:20:12.172Z,13.10
2022-10-31T01:22:38.970Z,11.30
2022-10-31T01:25:06.162Z,11.40
2022-10-31T01:27:33.052Z,11.40
2022-10-31T01:29:59.846Z,12.20
2022-10-31T01:32:29.812Z,11.40
2022-10-31T01:34:56.669Z,11.40
2022-10-31T01:37:23.459Z,11.40
2022-10-31T01:39:50.251Z,11.40
2022-10-31T01:42:18.803Z,11.40
2022-10-31T01:44:49.277Z,13.70
2022-10-31T01:47:16.719Z,8.90
2022-10-31T01:49:45.133Z,12.30
2022-10-31T01:52:20.499Z,11.50
2022-10-31T01:54:49.579Z,11.50
2022-10-31T01:57:16.489Z,8.60
2022-10-31T01:59:44.068Z,11.90
2022-10-31T02:02:11.459Z,9.40
2022-10-31T02:04:38.347Z,11.50
2022-10-31T02:07:10.989Z,9.50
2022-10-31T02:09:37.789Z,11.50
2022-10-31T02:12:04.678Z,11.60
2022-10-31T02:14:31.573Z,11.60
2022-10-31T02:16:58.630Z,11.60
2022-10-31T02:19:28.215Z,11.60
2022-10-31T02:21:58.079Z,11.60
2022-10-31T02:24:30.791Z,9.30
2022-10-31T02:27:00.657Z,9.30
2022-10-31T02:29:42.156Z,11.50
2022-10-31T02:32:15.078Z,11.50
2022-10-31T02:35:00.332Z,11.50
2022-10-31T02:37:30.440Z,11.50
2022-10-31T02:40:06.137Z,11.50
2022-10-31T02:42:56.348Z,10.80
2022-10-31T02:45:29.246Z,11.50
2022-10-31T02:47:56.856Z,11.20
2022-10-31T02:50:25.748Z,13.20
2022-10-31T02:52:52.992Z,11.60
2022-10-31T02:55:25.872Z,11.60
2022-10-31T02:58:06.331Z,9.80
2022-10-31T03:00:35.021Z,11.60
2022-10-31T03:03:14.643Z,11.70
2022-10-31T03:05:42.655Z,11.60
2022-10-31T03:08:12.942Z,11.00
2022-10-31T03:10:39.793Z,8.30
2022-10-31T03:13:09.820Z,11.60
2022-10-31T03:15:46.337Z,12.10
2022-10-31T03:18:14.506Z,11.40
2022-10-31T03:20:51.842Z,12.40
2022-10-31T03:23:18.876Z,11.70
2022-10-31T03:25:50.276Z,13.60
2022-10-31T03:30:45.038Z,11.80
2022-10-31T03:33:12.808Z,8.30
2022-10-31T03:35:40.580Z,11.80
2022-10-31T03:38:08.061Z,9.30
2022-10-31T03:40:35.594Z,11.80
2022-10-31T03:43:04.769Z,11.80
2022-10-31T03:45:33.261Z,9.20
2022-10-31T03:48:00.375Z,12.00
2022-10-31T03:50:29.783Z,9.80
2022-10-31T03:53:01.845Z,11.80
2022-10-31T03:55:49.711Z,11.70
2022-10-31T04:00:53.699Z,8.40
2022-10-31T04:03:25.981Z,11.70
2022-10-31T04:05:55.074Z,11.60
2022-10-31T04:08:23.844Z,11.70
2022-10-31T04:10:50.770Z,11.60
2022-10-31T04:13:21.110Z,11.70
2022-10-31T04:15:56.518Z,9.60
2022-10-31T04:18:23.681Z,11.60
2022-10-31T04:20:51.063Z,12.80
2022-10-31T04:23:21.840Z,9.50
2022-10-31T04:25:49.590Z,11.70
2022-10-31T04:30:49.965Z,11.70
2022-10-31T04:33:17.171Z,11.60
2022-10-31T04:35:46.260Z,11.60
2022-10-31T04:38:13.145Z,11.60
2022-10-31T04:40:40.763Z,11.60
2022-10-31T04:43:30.507Z,9.70
2022-10-31T04:45:59.959Z,10.90
2022-10-31T04:48:27.473Z,9.90
2022-10-31T04:50:54.333Z,11.50
2022-10-31T04:53:21.262Z,11.50
2022-10-31T04:56:10.667Z,11.50
2022-10-31T04:58:42.100Z,10.70
2022-10-31T05:01:13.327Z,11.40
2022-10-31T05:03:40.645Z,7.80
2022-10-31T05:06:07.794Z,11.30
2022-10-31T05:08:35.596Z,11.20
2022-10-31T05:11:07.412Z,12.00
2022-10-31T05:13:34.678Z,11.10
2022-10-31T05:16:13.583Z,11.10
2022-10-31T05:18:58.761Z,7.90
2022-10-31T05:21:43.729Z,13.90
2022-10-31T05:24:11.596Z,11.00
2022-10-31T05:26:40.447Z,11.00
2022-10-31T05:29:07.211Z,11.00
2022-10-31T05:31:34.331Z,11.00
2022-10-31T05:34:02.285Z,10.90
2022-10-31T05:36:43.911Z,9.40
2022-10-31T05:39:22.833Z,8.90
2022-10-31T05:41:54.728Z,10.80
2022-10-31T05:44:25.926Z,10.00
2022-10-31T05:47:07.261Z,10.80
2022-10-31T05:49:54.273Z,9.90
2022-10-31T05:52:39.353Z,11.70
2022-10-31T05:55:19.124Z,10.80
2022-10-31T05:58:02.711Z,10.70
2022-10-31T06:00:30.255Z,7.80
2022-10-31T06:03:06.575Z,10.70
2022-10-31T06:05:50.543Z,8.70
2022-10-31T06:08:20.949Z,10.70
2022-10-31T06:10:47.883Z,10.60
2022-10-31T06:13:19.580Z,10.60
2022-10-31T06:15:53.965Z,10.60
2022-10-31T06:18:24.130Z,10.60
2022-10-31T06:20:52.787Z,9.30
2022-10-31T06:23:19.735Z,12.00
2022-10-31T06:25:51.176Z,7.70
2022-10-31T06:28:18.165Z,13.20
2022-10-31T06:31:00.110Z,8.90
2022-10-31T06:33:26.957Z,10.70
2022-10-31T06:35:58.931Z,8.70
2022-10-31T06:38:27.343Z,10.80
2022-10-31T06:40:54.741Z,10.90
2022-10-31T06:43:23.362Z,12.60
2022-10-31T06:45:57.575Z,10.40
2022-10-31T06:48:28.327Z,10.80
2022-10-31T06:51:13.988Z,8.70
2022-10-31T06:54:06.077Z,11.80
2022-10-31T06:56:32.813Z,10.80
2022-10-31T06:59:00.777Z,10.90
2022-10-31T07:01:50.157Z,13.30
2022-10-31T07:04:17.891Z,10.90
2022-10-31T07:06:48.236Z,12.70
2022-10-31T07:09:18.773Z,11.00
2022-10-31T07:11:46.272Z,13.80
2022-10-31T07:14:14.557Z,8.70
2022-10-31T07:16:42.438Z,12.80
2022-10-31T07:19:10.425Z,12.80
2022-10-31T07:21:37.744Z,11.30
2022-10-31T07:24:04.894Z,11.30
2022-10-31T07:29:32.302Z,8.50
2022-10-31T07:31:59.252Z,12.20
2022-10-31T07:34:28.982Z,8.40
2022-10-31T07:37:01.494Z,11.60
2022-10-31T07:39:28.363Z,11.70
2022-10-31T07:41:55.210Z,12.60
2022-10-31T07:44:21.974Z,12.00
2022-10-31T07:47:08.669Z,11.90
2022-10-31T07:49:58.021Z,12.00
2022-10-31T07:52:43.197Z,14.50
2022-10-31T07:55:44.064Z,12.20
2022-10-31T07:58:13.579Z,12.70
2022-10-31T08:00:41.678Z,12.40
2022-10-31T08:03:09.853Z,12.80
2022-10-31T08:05:55.268Z,10.40
2022-10-31T08:08:36.007Z,12.80
2022-10-31T08:11:05.611Z,12.70
2022-10-31T08:13:32.694Z,12.80
2022-10-31T08:16:04.586Z,13.40
2022-10-31T08:18:34.583Z,11.70
2022-10-31T08:21:01.421Z,15.40
2022-10-31T08:23:28.211Z,12.30
2022-10-31T08:25:55.849Z,15.90
2022-10-31T08:28:23.728Z,13.20
2022-10-31T08:30:52.719Z,13.20
2022-10-31T08:33:37.828Z,11.60
2022-10-31T08:36:19.740Z,14.60
2022-10-31T08:39:00.592Z,13.30
2022-10-31T08:41:29.087Z,13.40
2022-10-31T08:43:56.035Z,13.50
2022-10-31T08:46:22.781Z,13.50
2022-10-31T08:48:49.914Z,13.60
2022-10-31T08:51:19.080Z,15.30
2022-10-31T08:53:46.178Z,13.70
2022-10-31T08:56:24.707Z,13.80
2022-10-31T08:58:53.401Z,15.90
2022-10-31T09:01:28.129Z,11.10
2022-10-31T09:03:55.046Z,14.10
2022-10-31T09:06:22.457Z,14.20
2022-10-31T09:08:49.333Z,15.00
2022-10-31T09:11:16.945Z,12.90
2022-10-31T09:14:02.129Z,15.40
2022-10-31T09:16:47.256Z,12.70
2022-10-31T09:19:21.192Z,17.00
2022-10-31T09:21:48.170Z,14.60
2022-10-31T09:24:15.138Z,15.40
2022-10-31T09:26:42.953Z,12.60
2022-10-31T09:29:26.341Z,14.70
2022-10-31T09:31:57.933Z,14.80
2022-10-31T09:34:33.597Z,14.90
2022-10-31T09:37:09.495Z,14.40
2022-10-31T09:39:36.507Z,15.10
2022-10-31T09:42:24.021Z,15.10
2022-10-31T09:45:01.229Z,15.20
2022-10-31T09:47:44.050Z,15.20
2022-10-31T09:50:45.137Z,15.30
2022-10-31T09:53:40.472Z,15.40
2022-10-31T09:56:09.400Z,15.40
2022-10-31T09:58:39.677Z,14.90
2022-10-31T10:01:06.648Z,15.70
2022-10-31T10:03:44.162Z,12.40
2022-10-31T10:06:30.910Z,15.80
2022-10-31T10:09:35.844Z,14.10
2022-10-31T10:12:41.301Z,15.90
2022-10-31T10:15:17.418Z,15.90
2022-10-31T10:17:44.154Z,16.00
2022-10-31T10:20:13.844Z,14.70
2022-10-31T10:22:46.482Z,16.00
2022-10-31T10:25:13.845Z,14.40
2022-10-31T10:27:53.006Z,16.00
2022-10-31T10:30:21.550Z,13.70
2022-10-31T10:32:51.077Z,15.90
2022-10-31T10:35:21.913Z,16.00
2022-10-31T10:37:50.067Z,13.80
2022-10-31T10:40:17.556Z,13.10
2022-10-31T10:43:22.676Z,16.10
2022-10-31T10:46:11.934Z,13.30
2022-10-31T10:48:51.258Z,16.30
2022-10-31T10:51:32.064Z,15.60
2022-10-31T10:54:14.973Z,16.50
2022-10-31T10:57:00.770Z,16.60
2022-10-31T10:59:27.677Z,16.60
2022-10-31T11:01:54.436Z,16.60
2022-10-31T11:04:25.152Z,16.70
2022-10-31T11:07:00.681Z,16.80
2022-10-31T11:09:27.526Z,16.90
2022-10-31T11:11:54.740Z,16.20
2022-10-31T11:14:21.645Z,14.90
2022-10-31T11:16:49.859Z,17.40
2022-10-31T11:19:20.562Z,17.50
2022-10-31T11:21:52.900Z,14.30
2022-10-31T11:24:20.937Z,17.80
2022-10-31T11:26:48.318Z,15.00
2022-10-31T11:29:22.475Z,18.00
2022-10-31T11:31:51.598Z,18.00
2022-10-31T11:34:27.735Z,18.10
2022-10-31T11:36:54.548Z,15.70
2022-10-31T11:39:22.673Z,18.30
2022-10-31T11:41:49.717Z,16.00
2022-10-31T11:44:27.057Z,18.50
2022-10-31T11:46:55.668Z,17.50
2022-10-31T11:49:25.491Z,18.60
2022-10-31T11:51:53.289Z,17.70
2022-10-31T11:54:21.771Z,18.70
2022-10-31T11:56:48.555Z,18.30
2022-10-31T11:59:29.196Z,18.80
2022-10-31T12:01:56.789Z,15.40
2022-10-31T12:04:25.486Z,18.80
2022-10-31T12:06:52.511Z,17.10
2022-10-31T12:09:19.344Z,18.70
2022-10-31T12:11:59.740Z,17.70
2022-10-31T12:14:30.443Z,18.80
2022-10-31T12:17:12.576Z,17.90
2022-10-31T12:19:39.392Z,18.80
2022-10-31T12:22:38.782Z,18.90
2022-10-31T12:25:11.509Z,18.90
2022-10-31T12:27:44.291Z,17.40
2022-10-31T12:30:13.916Z,19.10
2022-10-31T12:32:49.847Z,19.10
2022-10-31T12:38:08.213Z,18.40
2022-10-31T12:40:55.434Z,19.10
2022-10-31T12:43:23.023Z,19.10
2022-10-31T12:45:53.034Z,19.00
2022-10-31T12:48:19.835Z,18.70
2022-10-31T12:50:58.738Z,19.00
2022-10-31T12:53:43.921Z,19.00
2022-10-31T12:56:10.789Z,19.00
2022-10-31T12:58:43.611Z,19.00
2022-10-31T13:01:13.326Z,19.10
2022-10-31T13:03:43.694Z,18.30
2022-10-31T13:06:11.510Z,19.10
2022-10-31T13:08:55.020Z,19.10
2022-10-31T13:11:32.778Z,19.10
2022-10-31T13:14:02.570Z,19.20
2022-10-31T13:16:30.787Z,19.20
2022-10-31T13:19:00.893Z,17.40
2022-10-31T13:21:28.963Z,19.30
2022-10-31T13:23:55.833Z,18.80
2022-10-31T13:26:39.054Z,19.20
2022-10-31T13:29:05.841Z,17.10
2022-10-31T13:31:32.643Z,19.20
2022-10-31T13:34:00.817Z,19.10
2022-10-31T13:36:42.956Z,19.10
2022-10-31T13:42:45.554Z,19.10
2022-10-31T13:45:13.145Z,19.00
2022-10-31T13:47:39.804Z,19.00
2022-10-31T13:50:26.883Z,19.00
2022-10-31T13:53:03.999Z,18.80
2022-10-31T13:55:41.458Z,19.00
2022-10-31T13:58:27.473Z,19.00
2022-10-31T14:01:13.231Z,18.90
2022-10-31T14:06:37.179Z,16.70
2022-10-31T14:09:04.046Z,17.40
2022-10-31T14:11:34.524Z,18.80
2022-10-31T14:14:04.144Z,18.80
2022-10-31T14:16:31.900Z,18.70
2022-10-31T14:19:08.550Z,16.40
2022-10-31T14:21:39.253Z,18.50
2022-10-31T14:24:15.435Z,18.50
2022-10-31T14:26:51.972Z,18.40
2022-10-31T14:29:18.665Z,16.50
2022-10-31T14:31:46.045Z,18.20
2022-10-31T14:34:15.544Z,18.20
2022-10-31T14:36:42.313Z,18.10
2022-10-31T14:39:18.346Z,16.00
2022-10-31T14:42:08.486Z,18.00
2022-10-31T14:44:35.259Z,16.30
2022-10-31T14:47:05.044Z,18.10
2022-10-31T14:49:50.738Z,16.70
2022-10-31T14:52:17.969Z,18.20
2022-10-31T14:54:52.042Z,16.20
2022-10-31T14:57:26.270Z,18.00
2022-10-31T15:00:04.912Z,17.90
2022-10-31T15:02:48.080Z,17.80
2022-10-31T15:05:14.809Z,15.40
2022-10-31T15:07:57.371Z,17.40
2022-10-31T15:10:28.136Z,16.20
2022-10-31T15:12:55.000Z,17.10
2022-10-31T15:15:25.526Z,15.40
2022-10-31T15:17:54.954Z,16.80
2022-10-31T15:20:24.109Z,15.60
2022-10-31T15:22:51.054Z,16.50
2022-10-31T15:25:21.770Z,17.30
2022-10-31T15:27:48.927Z,16.30
2022-10-31T15:30:25.600Z,14.70
2022-10-31T15:32:58.154Z,16.10
2022-10-31T15:35:26.617Z,13.80
2022-10-31T15:37:53.730Z,15.70
2022-10-31T15:40:21.223Z,15.90
2022-10-31T15:42:51.193Z,15.80
2022-10-31T15:45:19.499Z,12.80
2022-10-31T15:47:46.983Z,15.70
2022-10-31T15:50:32.820Z,12.80
2022-10-31T15:53:00.921Z,15.60
2022-10-31T15:55:29.126Z,15.10
2022-10-31T15:58:00.156Z,15.40
2022-10-31T16:00:34.265Z,15.30
2022-10-31T16:03:13.314Z,15.20
2022-10-31T16:05:44.396Z,13.60
2022-10-31T16:08:27.953Z,15.00
2022-10-31T16:10:55.043Z,13.90
2022-10-31T16:13:26.781Z,14.90
2022-10-31T16:16:28.948Z,13.40
2022-10-31T16:18:46.987Z,14.70
2022-10-31T16:21:13.765Z,13.80
2022-10-31T16:23:41.031Z,14.60
2022-10-31T16:26:08.262Z,14.60
2022-10-31T16:28:38.747Z,14.50
2022-10-31T16:31:15.936Z,14.50
2022-10-31T16:33:43.271Z,14.50
2022-10-31T16:36:39.460Z,12.40
2022-10-31T16:39:06.534Z,14.40
2022-10-31T16:41:35.215Z,11.30
2022-10-31T16:44:01.972Z,15.20
2022-10-31T16:46:28.724Z,14.30
2022-10-31T16:48:55.471Z,13.60
2022-10-31T16:51:22.282Z,14.20
2022-10-31T16:53:49.127Z,14.10
2022-10-31T16:56:19.568Z,11.00
2022-10-31T16:58:46.409Z,15.20
2022-10-31T17:01:13.276Z,13.90
2022-10-31T17:03:40.241Z,13.90
2022-10-31T17:06:07.102Z,13.70
2022-10-31T17:08:34.151Z,13.90
2022-10-31T17:11:01.003Z,10.90
2022-10-31T17:13:28.765Z,13.90
2022-10-31T17:15:56.098Z,12.10
2022-10-31T17:18:27.116Z,13.80
2022-10-31T17:20:59.118Z,13.40
2022-10-31T17:23:25.951Z,13.60
2022-10-31T17:25:52.695Z,13.70
2022-10-31T17:28:19.545Z,13.60
2022-10-31T17:30:46.279Z,13.50
2022-10-31T17:33:13.439Z,13.50
2022-10-31T17:35:40.317Z,13.40
2022-10-31T17:38:07.099Z,13.40
2022-10-31T17:40:33.914Z,13.30
2022-10-31T17:43:00.954Z,13.30
2022-10-31T17:45:27.894Z,13.20
2022-10-31T17:47:54.681Z,13.20
2022-10-31T17:50:22.184Z,10.60
2022-10-31T17:52:49.215Z,13.10
2022-10-31T17:55:16.085Z,9.70
2022-10-31T17:57:44.101Z,13.00
2022-10-31T18:00:14.878Z,10.90
2022-10-31T18:02:41.759Z,12.90
2022-10-31T18:05:08.676Z,11.00
2022-10-31T18:07:36.032Z,11.50
2022-10-31T18:10:02.779Z,12.90
2022-10-31T18:12:32.223Z,12.80
2022-10-31T18:14:58.942Z,12.50
2022-10-31T18:17:25.704Z,14.90
2022-10-31T18:19:52.433Z,12.80
2022-10-31T18:22:19.204Z,14.30
2022-10-31T18:24:45.907Z,12.80
2022-10-31T18:27:12.732Z,14.30
2022-10-31T18:29:39.503Z,12.80
2022-10-31T18:32:09.525Z,12.80
2022-10-31T18:34:36.517Z,11.10
2022-10-31T18:37:03.434Z,14.80
2022-10-31T18:39:30.304Z,10.70
2022-10-31T18:41:57.227Z,12.70
2022-10-31T18:44:24.162Z,10.40
2022-10-31T18:46:50.941Z,12.70
2022-10-31T18:49:22.622Z,10.20
2022-10-31T18:51:52.311Z,12.60
2022-10-31T18:54:19.162Z,12.60
2022-10-31T18:56:45.970Z,12.50
2022-10-31T18:59:12.689Z,10.30
2022-10-31T19:01:39.865Z,12.50
2022-10-31T19:04:06.999Z,12.50
2022-10-31T19:06:33.795Z,12.40
2022-10-31T19:09:02.050Z,12.40
2022-10-31T19:11:28.934Z,12.30
2022-10-31T19:13:56.754Z,12.30
2022-10-31T19:16:23.556Z,12.40
2022-10-31T19:18:52.843Z,10.20
2022-10-31T19:21:19.679Z,12.30
2022-10-31T19:23:48.623Z,12.30
2022-10-31T19:26:15.380Z,12.30
2022-10-31T19:28:42.213Z,10.00
2022-10-31T19:31:09.060Z,13.20
2022-10-31T19:33:36.307Z,12.30
2022-10-31T19:36:10.452Z,10.00
2022-10-31T19:38:37.724Z,12.20
2022-10-31T19:41:06.542Z,12.20
2022-10-31T19:43:33.340Z,12.10
2022-10-31T19:46:00.875Z,11.10
2022-10-31T19:48:27.710Z,12.10
2022-10-31T19:50:58.593Z,11.20
2022-10-31T19:53:25.501Z,12.10
2022-10-31T19:55:52.261Z,12.20
2022-10-31T19:58:19.049Z,12.00
2022-10-31T20:00:45.935Z,12.00
2022-10-31T20:03:12.819Z,12.00
2022-10-31T20:05:40.528Z,11.90
2022-10-31T20:08:07.727Z,12.00
2022-10-31T20:10:34.536Z,13.20
2022-10-31T20:13:01.506Z,12.00
2022-10-31T20:15:28.514Z,12.00
2022-10-31T20:17:55.263Z,11.90
2022-10-31T20:20:22.223Z,8.70
2022-10-31T20:22:50.655Z,11.90
2022-10-31T20:25:17.646Z,11.90
2022-10-31T20:27:44.402Z,11.90
2022-10-31T20:30:11.478Z,8.60
2022-10-31T20:32:38.298Z,11.60
2022-10-31T20:35:05.188Z,8.90
2022-10-31T20:37:31.979Z,11.90
2022-10-31T20:39:58.721Z,11.90
2022-10-31T20:42:25.530Z,13.40
2022-10-31T20:44:52.261Z,11.50
2022-10-31T20:47:21.980Z,12.00
2022-10-31T20:49:51.770Z,12.00
2022-10-31T20:52:18.652Z,12.00
2022-10-31T20:54:45.391Z,10.60
2022-10-31T20:57:12.167Z,12.00
2022-10-31T20:59:38.945Z,10.40
2022-10-31T21:02:05.831Z,12.00
2022-10-31T21:04:32.692Z,8.80
2022-10-31T21:06:59.497Z,12.10
2022-10-31T21:09:26.289Z,11.00
2022-10-31T21:11:53.075Z,12.20
2022-10-31T21:14:19.882Z,10.20
2022-10-31T21:16:46.633Z,12.30
2022-10-31T21:19:13.447Z,12.30
2022-10-31T21:21:40.290Z,12.40
2022-10-31T21:24:11.189Z,10.40
2022-10-31T21:26:38.805Z,12.40
2022-10-31T21:29:05.721Z,11.10
2022-10-31T21:31:32.807Z,12.50
2022-10-31T21:33:59.593Z,12.60
2022-10-31T21:36:26.446Z,12.60
2022-10-31T21:38:53.570Z,12.70
2022-10-31T21:41:20.405Z,12.70
2022-10-31T21:43:47.619Z,12.70
2022-10-31T21:46:19.482Z,12.70
2022-10-31T21:48:46.339Z,12.90
2022-10-31T21:51:14.466Z,12.90
2022-10-31T21:53:59.974Z,13.10
2022-10-31T21:56:27.303Z,13.30
2022-10-31T21:58:54.229Z,13.40
2022-10-31T22:01:21.676Z,14.60
2022-10-31T22:03:48.742Z,13.50
2022-10-31T22:06:15.667Z,13.60
2022-10-31T22:08:42.670Z,13.60
2022-10-31T22:11:16.050Z,13.80
2022-10-31T22:13:50.545Z,13.60
2022-10-31T22:16:18.114Z,13.70
2022-10-31T22:18:44.941Z,13.90
2022-10-31T22:21:15.656Z,11.10
2022-10-31T22:23:42.553Z,11.00
2022-10-31T22:26:14.402Z,14.30
2022-10-31T22:28:41.911Z,14.50
2022-10-31T22:31:09.416Z,14.60
2022-10-31T22:33:39.108Z,14.70
2022-10-31T22:36:06.903Z,14.70
2022-10-31T22:38:40.080Z,12.30
2022-10-31T22:41:07.304Z,14.70
2022-10-31T22:43:34.094Z,12.80
2022-10-31T22:46:03.475Z,11.60
2022-10-31T22:48:39.611Z,12.90
2022-10-31T22:51:11.101Z,14.50
2022-10-31T22:53:38.313Z,14.60
2022-10-31T22:56:05.489Z,14.70
2022-10-31T22:58:32.508Z,14.90
2022-10-31T23:00:59.529Z,15.00
2022-10-31T23:03:26.443Z,15.00
2022-10-31T23:05:56.592Z,12.40
2022-10-31T23:08:23.543Z,15.00
2022-10-31T23:10:50.377Z,14.10
2022-10-31T23:13:36.043Z,15.10
2022-10-31T23:16:05.149Z,13.50
2022-10-31T23:18:49.206Z,15.20
2022-10-31T23:21:32.740Z,12.40
2022-10-31T23:23:59.486Z,15.40
2022-10-31T23:26:44.994Z,15.40
2022-10-31T23:29:11.739Z,15.40
2022-10-31T23:31:38.555Z,14.30
2022-10-31T23:34:05.314Z,15.40
2022-10-31T23:36:32.136Z,15.40
2022-10-31T23:38:58.953Z,15.20
2022-10-31T23:41:25.766Z,15.10
2022-10-31T23:43:52.572Z,14.90
2022-10-31T23:46:19.356Z,12.80
2022-10-31T23:48:48.176Z,14.30
2022-10-31T23:51:15.370Z,14.70
2022-10-31T23:53:45.632Z,14.50
2022-10-31T23:56:12.826Z,14.60
2022-10-31T23:58:39.733Z,14.50
